Time;durP1;ratioP1;P1;durP2;ratioP2;P2;SDS_P1;SDS_P2;PMS_P1;PMS_P2;Temp;Humidity;BMP_temperature;BMP_pressure;BME280_temperature;BME280_humidity;BME280_pressure;Samples;Min_cycle;Max_cycle;Signal;HPM_P1;HPM_P2
2023/08/22 00:01:29;;;;;;;;;;;;;;;24.50;66.66;98324.81;4926482;28;20413;-76
2023/08/22 00:03:57;;;;;;;;;;;;;;;24.42;66.52;98339.06;4932042;29;19974;-76
2023/08/22 00:06:25;;;;;;;;;;;;;;;24.37;66.86;98337.44;4919508;28;20065;-76
2023/08/22 00:08:55;;;;;;;;;;;;;;;24.36;66.79;98330.31;4926144;29;19926;-76
2023/08/22 00:11:23;;;;;;;;;;;;;;;24.24;67.40;98322.31;4933761;29;19927;-76
2023/08/22 00:13:51;;;;;;;;;;;;;;;24.23;67.51;98321.50;4934353;29;20405;-77
2023/08/22 00:16:18;;;;;;;;;;;;;;;24.15;68.04;98324.66;4925951;29;19930;-77
2023/08/22 00:18:47;;;;;;;;;;;;;;;24.21;67.54;98317.53;4927303;29;19935;-76
2023/08/22 00:21:14;;;;;;;;;;;;;;;24.28;67.52;98312.78;4931011;29;20306;-76
2023/08/22 00:23:43;;;;;;;;;;;;;;;24.28;67.70;98312.00;4930783;29;19966;-76
2023/08/22 00:26:12;;;;;;;;;;;;;;;24.33;67.11;98317.16;4947798;29;20160;-77
2023/08/22 00:28:40;;;;;;;;;;;;;;;24.19;67.85;98317.16;4918518;29;20110;-77
2023/08/22 00:31:11;;;;;;;;;;;;;;;24.08;67.95;98310.78;4940647;28;20434;-78
2023/08/22 00:33:39;;;;;;;;;;;;;;;23.97;68.49;98305.97;4930388;29;19926;-78
2023/08/22 00:36:07;;;;;;;;;;;;;;;24.02;68.26;98305.59;4930770;29;19934;-80
2023/08/22 00:38:35;;;;;;;;;;;;;;;24.00;68.02;98305.19;4930144;29;19937;-76
2023/08/22 00:41:03;;;;;;;;;;;;;;;23.98;68.28;98304.78;4934311;29;19927;-77
2023/08/22 00:43:32;;;;;;;;;;;;;;;24.05;68.03;98298.47;4936211;29;19926;-80
2023/08/22 00:46:01;;;;;;;;;;;;;;;24.09;67.92;98306.81;4933881;28;20437;-79
2023/08/22 00:48:29;;;;;;;;;;;;;;;24.12;67.78;98314.34;4931473;29;19958;-77
2023/08/22 00:50:59;;;;;;;;;;;;;;;24.10;67.63;98300.06;4935452;29;19927;-76
2023/08/22 00:53:27;;;;;;;;;;;;;;;24.07;67.64;98303.59;4934510;29;19927;-76
2023/08/22 00:55:55;;;;;;;;;;;;;;;23.96;67.87;98298.81;4929101;29;19935;-78
2023/08/22 00:58:22;;;;;;;;;;;;;;;24.09;67.43;98304.03;4931600;29;19950;-80
2023/08/22 01:00:51;;;;;;;;;;;;;;;24.14;67.29;98301.66;4930306;28;19938;-78
2023/08/22 01:03:19;;;;;;;;;;;;;;;24.11;67.76;98305.22;4948661;29;19935;-78
2023/08/22 01:05:50;;;;;;;;;;;;;;;23.97;67.80;98302.38;4933410;29;19927;-79
2023/08/22 01:08:18;;;;;;;;;;;;;;;23.95;67.44;98299.22;4931340;29;20348;-79
2023/08/22 01:10:47;;;;;;;;;;;;;;;23.98;67.34;98298.44;4929186;29;20021;-78
2023/08/22 01:13:19;;;;;;;;;;;;;;;23.97;67.13;98297.66;4932478;29;19931;-78
2023/08/22 01:15:47;;;;;;;;;;;;;;;23.80;67.83;98298.34;4928245;29;19930;-79
2023/08/22 01:18:18;;;;;;;;;;;;;;;23.75;68.29;98295.94;4944129;29;19935;-76
2023/08/22 01:20:46;;;;;;;;;;;;;;;23.77;68.13;98293.59;4934187;29;19926;-79
2023/08/22 01:23:16;;;;;;;;;;;;;;;23.82;67.83;98287.69;4935382;29;19935;-77
2023/08/22 01:25:44;;;;;;;;;;;;;;;23.76;67.86;98292.00;4934294;28;19937;-79
2023/08/22 01:28:15;;;;;;;;;;;;;;;23.82;67.95;98287.69;4933892;29;20025;-77
2023/08/22 01:30:46;;;;;;;;;;;;;;;23.77;67.90;98290.81;4943863;29;20005;-78
2023/08/22 01:33:16;;;;;;;;;;;;;;;23.64;68.25;98295.91;4942824;29;20260;-76
2023/08/22 01:35:47;;;;;;;;;;;;;;;23.70;68.14;98294.38;4917595;29;20339;-80
2023/08/22 01:38:16;;;;;;;;;;;;;;;23.71;68.06;98300.72;4921854;29;19927;-78
2023/08/22 01:40:44;;;;;;;;;;;;;;;23.61;68.35;98302.22;4928386;28;19931;-82
2023/08/22 01:43:12;;;;;;;;;;;;;;;23.50;68.31;98288.28;4928008;29;20387;-81
2023/08/22 01:45:39;;;;;;;;;;;;;;;23.52;68.44;98294.22;4909963;29;19938;-83
2023/08/22 01:48:07;;;;;;;;;;;;;;;23.57;68.46;98284.75;4933359;29;19933;-83
2023/08/22 01:50:38;;;;;;;;;;;;;;;23.57;68.19;98295.06;4926157;28;19979;-82
2023/08/22 01:53:09;;;;;;;;;;;;;;;23.56;68.28;98291.47;4924407;29;20012;-83
2023/08/22 01:55:38;;;;;;;;;;;;;;;23.51;68.38;98289.88;4933023;29;20287;-82
2023/08/22 01:58:10;;;;;;;;;;;;;;;23.57;68.25;98284.75;4931209;29;19931;-82
2023/08/22 02:00:39;;;;;;;;;;;;;;;23.63;68.06;98287.97;4921527;29;19927;-83
2023/08/22 02:03:06;;;;;;;;;;;;;;;23.62;67.98;98287.16;4934813;29;19937;-83
2023/08/22 02:05:35;;;;;;;;;;;;;;;23.63;68.12;98282.44;4927818;29;19935;-82
2023/08/22 02:08:04;;;;;;;;;;;;;;;23.63;68.08;98280.44;4946563;29;19933;-83
2023/08/22 02:10:32;;;;;;;;;;;;;;;23.49;68.73;98280.38;4931681;29;20284;-83
2023/08/22 02:13:01;;;;;;;;;;;;;;;23.52;68.80;98280.38;4931744;29;19934;-84
2023/08/22 02:15:29;;;;;;;;;;;;;;;23.56;68.54;98276.81;4921781;28;19962;-80
2023/08/22 02:17:57;;;;;;;;;;;;;;;23.59;68.65;98282.38;4946753;29;20321;-83
2023/08/22 02:20:25;;;;;;;;;;;;;;;23.45;69.08;98282.31;4928497;29;19930;-83
2023/08/22 02:22:53;;;;;;;;;;;;;;;23.47;68.78;98277.16;4949163;29;19934;-82
2023/08/22 02:25:21;;;;;;;;;;;;;;;23.53;69.02;98279.19;4948235;28;20014;-84
2023/08/22 02:27:49;;;;;;;;;;;;;;;23.60;68.74;98277.66;4932258;29;19927;-82
2023/08/22 02:30:20;;;;;;;;;;;;;;;23.52;68.87;98279.56;4932954;29;20430;-83
2023/08/22 02:32:49;;;;;;;;;;;;;;;23.60;68.44;98277.66;4934526;29;19984;-81
2023/08/22 02:35:16;;;;;;;;;;;;;;;23.55;68.46;98292.66;4932631;29;19926;-82
2023/08/22 02:37:44;;;;;;;;;;;;;;;23.49;68.79;98291.47;4931856;29;20017;-83
2023/08/22 02:40:12;;;;;;;;;;;;;;;23.47;68.55;98291.81;4932376;29;19933;-83
2023/08/22 02:42:40;;;;;;;;;;;;;;;23.40;68.66;98289.03;4931032;29;20318;-82
2023/08/22 02:45:08;;;;;;;;;;;;;;;23.29;69.21;98279.06;4927344;29;19930;-81
2023/08/22 02:47:38;;;;;;;;;;;;;;;23.34;68.93;98279.47;4933686;28;20374;-83
2023/08/22 02:50:07;;;;;;;;;;;;;;;23.42;68.52;98278.31;4943952;29;19931;-84
2023/08/22 02:52:36;;;;;;;;;;;;;;;23.44;68.28;98281.53;4941837;29;19931;-82
2023/08/22 02:55:04;;;;;;;;;;;;;;;23.41;68.70;98275.94;4949215;29;19927;-82
2023/08/22 02:57:33;;;;;;;;;;;;;;;23.39;68.78;98273.56;4932633;29;19926;-81
2023/08/22 03:00:01;;;;;;;;;;;;;;;23.29;68.80;98271.53;4930275;29;20378;-81
2023/08/22 03:02:29;;;;;;;;;;;;;;;23.31;68.90;98269.16;4943387;29;20298;-79
2023/08/22 03:04:58;;;;;;;;;;;;;;;23.23;68.89;98275.84;4929339;29;19931;-79
2023/08/22 03:07:27;;;;;;;;;;;;;;;23.22;69.17;98274.25;4930645;29;19927;-83
2023/08/22 03:09:55;;;;;;;;;;;;;;;23.28;68.75;98272.72;4932234;29;19938;-79
2023/08/22 03:12:22;;;;;;;;;;;;;;;23.16;69.27;98270.25;4928900;29;19953;-81
2023/08/22 03:14:50;;;;;;;;;;;;;;;23.18;69.31;98267.91;4932214;29;20414;-81
2023/08/22 03:17:18;;;;;;;;;;;;;;;23.18;69.13;98265.91;4943284;28;20006;-84
2023/08/22 03:19:46;;;;;;;;;;;;;;;23.18;69.07;98273.44;4932807;29;19985;-85
2023/08/22 03:22:15;;;;;;;;;;;;;;;23.09;69.74;98264.66;4931017;28;19927;-84
2023/08/22 03:24:43;;;;;;;;;;;;;;;23.09;69.61;98261.88;4935532;29;19931;-83
2023/08/22 03:27:11;;;;;;;;;;;;;;;23.16;69.71;98254.41;4940882;29;19931;-82
2023/08/22 03:29:40;;;;;;;;;;;;;;;23.16;69.34;98261.94;4943986;29;19934;-83
2023/08/22 03:32:08;;;;;;;;;;;;;;;23.09;69.88;98264.66;4937373;28;20021;-82
2023/08/22 03:34:36;;;;;;;;;;;;;;;23.12;69.86;98261.13;4944792;29;20390;-82
2023/08/22 03:37:05;;;;;;;;;;;;;;;23.13;69.55;98259.94;4947716;28;20001;-83
2023/08/22 03:39:34;;;;;;;;;;;;;;;23.17;69.31;98260.75;4931321;29;20006;-83
2023/08/22 03:42:02;;;;;;;;;;;;;;;23.19;69.24;98255.63;4923699;29;20372;-84
2023/08/22 03:44:30;;;;;;;;;;;;;;;23.09;69.64;98259.13;4921531;29;19954;-83
2023/08/22 03:46:58;;;;;;;;;;;;;;;23.07;69.73;98251.19;4922867;29;20037;-85
2023/08/22 03:49:36;;;;;;;;;;;;;;;23.13;69.41;98254.41;4922518;29;19949;-78
2023/08/22 03:52:04;;;;;;;;;;;;;;;23.19;69.24;98252.84;4925670;29;19937;-83
2023/08/22 03:54:33;;;;;;;;;;;;;;;23.12;69.30;98252.81;4941056;29;20383;-83
2023/08/22 03:57:02;;;;;;;;;;;;;;;22.95;69.66;98255.06;4933085;29;19933;-83
2023/08/22 03:59:32;;;;;;;;;;;;;;;23.04;69.43;98256.72;4927153;29;19934;-87
2023/08/22 04:02:01;;;;;;;;;;;;;;;23.10;69.43;98260.72;4940567;29;19950;-87
2023/08/22 04:04:29;;;;;;;;;;;;;;;23.02;69.08;98259.09;4930509;28;19931;-89
2023/08/22 04:06:57;;;;;;;;;;;;;;;22.94;69.32;98263.75;4933242;29;19935;-89
2023/08/22 04:09:28;;;;;;;;;;;;;;;22.85;69.78;98266.84;4947505;29;20390;-88
2023/08/22 04:11:56;;;;;;;;;;;;;;;22.93;69.67;98268.50;4931013;29;19977;-88
2023/08/22 04:14:26;;;;;;;;;;;;;;;22.94;69.46;98275.63;4936314;29;19933;-88
2023/08/22 04:16:54;;;;;;;;;;;;;;;23.00;69.18;98270.53;4925493;29;19927;-88
2023/08/22 04:19:22;;;;;;;;;;;;;;;22.99;69.40;98266.97;4934315;29;19977;-89
2023/08/22 04:21:50;;;;;;;;;;;;;;;22.97;69.22;98276.84;4940061;29;20383;-89
2023/08/22 04:24:19;;;;;;;;;;;;;;;23.01;69.17;98280.47;4926206;29;20303;-88
2023/08/22 04:26:48;;;;;;;;;;;;;;;23.03;68.98;98271.75;4914267;29;19931;-87
2023/08/22 04:29:16;;;;;;;;;;;;;;;23.00;69.28;98270.53;4928029;29;19927;-88
2023/08/22 04:31:45;;;;;;;;;;;;;;;22.97;69.05;98279.63;4925642;29;19927;-88
2023/08/22 04:34:14;;;;;;;;;;;;;;;22.96;69.31;98280.81;4950687;29;19927;-87
2023/08/22 04:36:53;;;;;;;;;;;;;;;22.79;69.79;98282.22;4940686;29;19927;-87
2023/08/22 04:39:21;;;;;;;;;;;;;;;22.83;70.08;98288.59;4930642;29;19931;-86
2023/08/22 04:41:54;;;;;;;;;;;;;;;22.85;69.88;98280.69;4927041;29;20430;-87
2023/08/22 04:44:28;;;;;;;;;;;;;;;22.88;69.84;98277.19;4930744;29;19938;-87
2023/08/22 04:46:57;;;;;;;;;;;;;;;22.95;69.72;98281.97;4936966;28;19934;-87
2023/08/22 04:49:25;;;;;;;;;;;;;;;22.97;69.29;98280.41;4930648;29;20379;-87
2023/08/22 04:51:53;;;;;;;;;;;;;;;22.91;69.48;98281.97;4930823;29;20342;-88
2023/08/22 04:54:20;;;;;;;;;;;;;;;22.95;69.19;98277.22;4930601;29;19926;-88
2023/08/22 04:56:48;;;;;;;;;;;;;;;22.92;69.24;98272.47;4930511;29;19927;-88
2023/08/22 04:59:16;;;;;;;;;;;;;;;22.85;69.21;98275.16;4930714;29;19934;-88
2023/08/22 05:01:45;;;;;;;;;;;;;;;22.88;69.26;98284.69;4922494;29;20035;-88
2023/08/22 05:04:15;;;;;;;;;;;;;;;22.79;69.61;98284.19;4929495;29;19931;-87
2023/08/22 05:06:43;;;;;;;;;;;;;;;22.77;70.16;98281.03;4929479;29;20264;-87
2023/08/22 05:09:14;;;;;;;;;;;;;;;22.69;70.61;98282.91;4930399;29;19982;-90
2023/08/22 05:11:42;;;;;;;;;;;;;;;22.78;70.17;98288.94;4930970;29;19931;-90
2023/08/22 05:14:11;;;;;;;;;;;;;;;22.77;70.93;98287.34;4921821;29;20278;-91
2023/08/22 05:16:39;;;;;;;;;;;;;;;22.77;70.41;98275.47;4925524;29;19927;-91
2023/08/22 05:19:07;;;;;;;;;;;;;;;22.80;70.08;98280.22;4944713;29;20142;-91
2023/08/22 05:21:37;;;;;;;;;;;;;;;22.81;69.72;98285.41;4918693;29;19931;-90
2023/08/22 05:24:06;;;;;;;;;;;;;;;22.83;69.74;98285.81;4934320;29;19949;-90
2023/08/22 05:26:34;;;;;;;;;;;;;;;22.85;69.66;98283.47;4932751;29;19997;-91
2023/08/22 05:29:02;;;;;;;;;;;;;;;22.86;69.63;98289.81;4949142;28;19927;-90
2023/08/22 05:31:29;;;;;;;;;;;;;;;22.87;69.39;98288.63;4928931;29;20257;-91
2023/08/22 05:33:59;;;;;;;;;;;;;;;22.78;70.09;98294.47;4950069;28;19931;-91
2023/08/22 05:36:27;;;;;;;;;;;;;;;22.78;70.21;98294.47;4922374;29;19970;-90
2023/08/22 05:38:56;;;;;;;;;;;;;;;22.83;70.14;98291.34;4950598;28;19927;-89
2023/08/22 05:41:24;;;;;;;;;;;;;;;22.91;69.77;98295.81;4930772;29;20379;-90
2023/08/22 05:43:53;;;;;;;;;;;;;;;22.89;70.20;98300.94;4922476;29;20352;-91
2023/08/22 05:46:21;;;;;;;;;;;;;;;22.90;70.38;98296.97;4944899;28;20010;-90
2023/08/22 05:48:49;;;;;;;;;;;;;;;22.97;69.83;98305.34;4938579;29;19937;-90
2023/08/22 05:51:18;;;;;;;;;;;;;;;23.07;69.82;98294.75;4951323;29;19927;-90
2023/08/22 05:53:45;;;;;;;;;;;;;;;23.06;69.64;98298.69;4934849;29;19930;-90
2023/08/22 05:56:15;;;;;;;;;;;;;;;23.13;69.22;98307.84;4936074;29;19926;-90
2023/08/22 05:58:43;;;;;;;;;;;;;;;23.19;69.31;98302.75;4947404;28;19927;-90
2023/08/22 06:01:11;;;;;;;;;;;;;;;23.17;69.48;98305.91;4930079;29;19965;-91
2023/08/22 06:03:39;;;;;;;;;;;;;;;23.18;69.51;98296.41;4933430;29;19935;-91
2023/08/22 06:06:08;;;;;;;;;;;;;;;23.20;69.80;98302.34;4933945;29;19949;-91
2023/08/22 06:08:36;;;;;;;;;;;;;;;23.18;69.77;98295.63;4933183;29;19931;-90
2023/08/22 06:11:04;;;;;;;;;;;;;;;23.16;69.69;98298.75;4933570;29;19927;-92
2023/08/22 06:13:34;;;;;;;;;;;;;;;23.11;69.87;98301.09;4938141;29;19927;-91
2023/08/22 06:16:02;;;;;;;;;;;;;;;23.13;69.91;98298.75;4928272;29;19930;-91
2023/08/22 06:18:31;;;;;;;;;;;;;;;23.21;69.85;98300.38;4933656;29;20328;-90
2023/08/22 06:21:00;;;;;;;;;;;;;;;23.28;69.79;98305.97;4931181;29;20314;-78
2023/08/22 06:23:27;;;;;;;;;;;;;;;23.33;69.57;98308.41;4938930;28;19958;-78
2023/08/22 06:25:56;;;;;;;;;;;;;;;23.33;69.26;98302.84;4930245;29;19999;-76
2023/08/22 06:28:24;;;;;;;;;;;;;;;23.43;69.29;98301.31;4927220;29;20189;-75
2023/08/22 06:30:56;;;;;;;;;;;;;;;23.45;69.62;98294.19;4938671;28;20342;-78
2023/08/22 06:33:23;;;;;;;;;;;;;;;23.40;69.94;98293.78;4926081;29;19950;-76
2023/08/22 06:35:52;;;;;;;;;;;;;;;23.34;70.24;98293.34;4944764;28;19931;-77
2023/08/22 06:38:20;;;;;;;;;;;;;;;23.29;70.50;98290.94;4919904;29;20016;-78
2023/08/22 06:40:48;;;;;;;;;;;;;;;23.40;70.50;98291.00;4923827;29;19931;-79
2023/08/22 06:43:16;;;;;;;;;;;;;;;23.44;70.26;98292.63;4932893;29;19931;-77
2023/08/22 06:45:46;;;;;;;;;;;;;;;23.41;70.22;98292.59;4931790;28;19935;-78
2023/08/22 06:48:16;;;;;;;;;;;;;;;23.51;69.88;98289.88;4932348;29;19931;-76
2023/08/22 06:50:57;;;;;;;;;;;;;;;23.52;70.33;98288.69;4931942;29;19942;-77
2023/08/22 06:53:25;;;;;;;;;;;;;;;23.51;69.92;98292.66;4925987;29;20027;-78
2023/08/22 06:55:54;;;;;;;;;;;;;;;23.59;69.25;98287.13;4929638;29;19933;-77
2023/08/22 06:58:22;;;;;;;;;;;;;;;23.65;69.85;98291.16;4929233;29;19949;-78
2023/08/22 07:00:50;;;;;;;;;;;;;;;23.76;69.26;98283.69;4927472;28;20305;-79
2023/08/22 07:03:19;;;;;;;;;;;;;;;23.83;69.50;98292.03;4934276;29;19993;-76
2023/08/22 07:05:50;;;;;;;;;;;;;;;23.95;69.23;98288.91;4925467;29;19981;-80
2023/08/22 07:08:21;;;;;;;;;;;;;;;24.02;68.49;98299.22;4926490;29;19927;-76
2023/08/22 07:10:49;;;;;;;;;;;;;;;24.09;68.22;98295.72;4931293;29;19933;-75
2023/08/22 07:13:18;;;;;;;;;;;;;;;24.14;68.24;98306.44;4931091;29;19930;-77
2023/08/22 07:15:48;;;;;;;;;;;;;;;24.18;68.25;98301.66;4931381;28;19930;-77
2023/08/22 07:18:16;;;;;;;;;;;;;;;24.26;68.28;98292.19;4931398;29;19931;-77
2023/08/22 07:20:46;;;;;;;;;;;;;;;24.34;68.23;98292.97;4940856;29;19930;-77
2023/08/22 07:23:14;;;;;;;;;;;;;;;24.37;67.42;98293.03;4934969;29;20014;-78
2023/08/22 07:25:42;;;;;;;;;;;;;;;24.43;67.47;98287.88;4936283;29;19938;-79
2023/08/22 07:28:12;;;;;;;;;;;;;;;24.52;67.74;98289.09;4934930;28;19962;-79
2023/08/22 07:30:40;;;;;;;;;;;;;;;24.51;67.35;98293.06;4929516;29;19926;-75
2023/08/22 07:33:08;;;;;;;;;;;;;;;24.58;66.52;98292.25;4944445;28;20386;-77
2023/08/22 07:35:36;;;;;;;;;;;;;;;24.52;67.15;98299.41;4931963;29;19933;-77
2023/08/22 07:38:05;;;;;;;;;;;;;;;24.64;67.39;98296.22;4942920;28;19930;-76
2023/08/22 07:40:37;;;;;;;;;;;;;;;24.72;66.69;98300.63;4931655;29;20418;-76
2023/08/22 07:43:05;;;;;;;;;;;;;;;24.75;66.41;98296.25;4926551;28;19934;-75
2023/08/22 07:45:33;;;;;;;;;;;;;;;24.85;66.53;98303.78;4926478;28;19931;-76
2023/08/22 07:48:01;;;;;;;;;;;;;;;24.94;66.20;98306.19;4932853;28;19938;-78
2023/08/22 07:50:30;;;;;;;;;;;;;;;24.98;65.67;98301.41;4932460;29;19927;-79
2023/08/22 07:52:58;;;;;;;;;;;;;;;25.03;65.00;98307.34;4933028;29;19933;-78
2023/08/22 07:55:27;;;;;;;;;;;;;;;25.05;65.13;98307.75;4931514;29;20033;-78
2023/08/22 07:57:55;;;;;;;;;;;;;;;25.08;65.38;98309.75;4931813;29;20343;-77
2023/08/22 08:00:23;;;;;;;;;;;;;;;25.12;65.32;98309.75;4925660;29;19934;-80
2023/08/22 08:02:51;;;;;;;;;;;;;;;25.15;65.43;98310.97;4915918;29;19936;-77
2023/08/22 08:05:19;;;;;;;;;;;;;;;25.15;65.66;98308.19;4928541;29;20383;-79
2023/08/22 08:07:48;;;;;;;;;;;;;;;25.17;65.58;98311.34;4919091;29;19927;-79
2023/08/22 08:10:18;;;;;;;;;;;;;;;25.19;65.11;98306.19;4929412;29;19927;-79
2023/08/22 08:12:47;;;;;;;;;;;;;;;25.21;65.54;98317.72;4932408;29;19933;-78
2023/08/22 08:15:15;;;;;;;;;;;;;;;25.24;65.10;98311.34;4917122;28;19935;-78
2023/08/22 08:17:43;;;;;;;;;;;;;;;25.27;64.80;98318.88;4932807;29;19956;-79
2023/08/22 08:20:11;;;;;;;;;;;;;;;25.29;64.05;98310.94;4933062;29;20481;-79
2023/08/22 08:22:41;;;;;;;;;;;;;;;25.33;63.00;98317.28;4937111;29;20045;-78
2023/08/22 08:25:09;;;;;;;;;;;;;;;25.35;62.78;98320.44;4930754;29;19927;-77
2023/08/22 08:27:40;;;;;;;;;;;;;;;25.43;62.47;98319.25;4930308;29;19926;-80
2023/08/22 08:30:10;;;;;;;;;;;;;;;25.54;62.94;98313.69;4925852;29;20386;-77
2023/08/22 08:32:37;;;;;;;;;;;;;;;25.63;61.64;98316.06;4931447;28;19934;-76
2023/08/22 08:35:06;;;;;;;;;;;;;;;25.65;62.71;98311.66;4933314;29;20385;-77
2023/08/22 08:37:35;;;;;;;;;;;;;;;25.72;61.95;98313.63;4930544;29;19930;-78
2023/08/22 08:40:05;;;;;;;;;;;;;;;25.72;61.26;98319.97;4933052;29;19931;-77
2023/08/22 08:42:34;;;;;;;;;;;;;;;25.79;61.17;98324.78;4920177;29;19927;-77
2023/08/22 08:45:02;;;;;;;;;;;;;;;25.81;59.71;98316.81;4927726;29;19937;-77
2023/08/22 08:47:31;;;;;;;;;;;;;;;25.86;59.64;98314.41;4933491;28;19927;-77
2023/08/22 08:50:00;;;;;;;;;;;;;;;25.94;59.43;98314.34;4941182;29;20006;-77
2023/08/22 08:52:28;;;;;;;;;;;;;;;25.94;59.35;98314.34;4940068;29;19934;-78
2023/08/22 08:54:56;;;;;;;;;;;;;;;26.01;59.36;98311.56;4941328;29;19930;-77
2023/08/22 08:57:24;;;;;;;;;;;;;;;26.05;59.41;98309.56;4935812;28;20321;-77
2023/08/22 08:59:52;;;;;;;;;;;;;;;26.08;59.77;98303.97;4928449;29;19931;-77
2023/08/22 09:02:20;;;;;;;;;;;;;;;26.08;59.73;98309.53;4928816;28;19986;-77
2023/08/22 09:04:50;;;;;;;;;;;;;;;26.16;59.94;98309.50;4935623;29;20410;-76
2023/08/22 09:07:18;;;;;;;;;;;;;;;26.19;59.32;98308.69;4935646;28;19933;-75
2023/08/22 09:09:48;;;;;;;;;;;;;;;26.21;58.72;98307.09;4933971;29;20029;-76
2023/08/22 09:12:16;;;;;;;;;;;;;;;26.21;56.97;98304.31;4934918;29;19938;-75
2023/08/22 09:14:45;;;;;;;;;;;;;;;26.20;56.95;98302.69;4935896;29;19931;-76
2023/08/22 09:17:14;;;;;;;;;;;;;;;26.28;56.38;98301.47;4932589;28;20037;-75
2023/08/22 09:19:42;;;;;;;;;;;;;;;26.37;55.90;98303.81;4934122;28;19938;-77
2023/08/22 09:22:12;;;;;;;;;;;;;;;26.47;55.51;98296.59;4941226;29;20310;-75
2023/08/22 09:24:41;;;;;;;;;;;;;;;26.50;54.89;98295.81;4928882;29;19927;-75
2023/08/22 09:27:11;;;;;;;;;;;;;;;26.54;53.37;98291.78;4929601;29;20433;-75
2023/08/22 09:29:42;;;;;;;;;;;;;;;26.56;53.88;98294.94;4935026;29;19934;-76
2023/08/22 09:32:13;;;;;;;;;;;;;;;26.63;53.45;98292.13;4923798;29;19927;-75
2023/08/22 09:34:40;;;;;;;;;;;;;;;26.64;53.50;98295.72;4933596;29;19985;-75
2023/08/22 09:37:08;;;;;;;;;;;;;;;26.60;53.48;98292.94;4930341;29;19931;-76
2023/08/22 09:39:38;;;;;;;;;;;;;;;26.61;52.56;98288.94;4932739;29;19941;-75
2023/08/22 09:42:06;;;;;;;;;;;;;;;26.64;51.93;98290.94;4925614;29;20379;-75
2023/08/22 09:44:34;;;;;;;;;;;;;;;26.65;52.26;98291.72;4932215;29;19930;-75
2023/08/22 09:47:02;;;;;;;;;;;;;;;26.77;50.36;98293.22;4928744;28;20334;-75
2023/08/22 09:49:30;;;;;;;;;;;;;;;26.86;50.39;98271.25;4927044;28;19927;-76
2023/08/22 09:51:57;;;;;;;;;;;;;;;26.93;51.60;98285.13;4927555;29;19927;-76
2023/08/22 09:54:25;;;;;;;;;;;;;;;27.01;51.26;98283.88;4926442;29;20025;-76
2023/08/22 09:56:54;;;;;;;;;;;;;;;27.00;51.72;98285.03;4930369;29;19938;-77
2023/08/22 09:59:22;;;;;;;;;;;;;;;27.03;50.89;98284.22;4931783;29;19932;-76
2023/08/22 10:01:50;;;;;;;;;;;;;;;27.10;50.91;98275.81;4929092;28;19934;-77
2023/08/22 10:04:18;;;;;;;;;;;;;;;27.10;50.80;98278.63;4934360;29;19927;-76
2023/08/22 10:06:48;;;;;;;;;;;;;;;27.09;51.23;98277.03;4936523;28;19933;-77
2023/08/22 10:09:18;;;;;;;;;;;;;;;27.16;51.13;98276.16;4934673;29;20001;-77
2023/08/22 10:11:49;;;;;;;;;;;;;;;27.26;50.54;98277.28;4934613;28;19934;-77
2023/08/22 10:14:21;;;;;;;;;;;;;;;27.25;50.47;98275.69;4934171;28;20134;-76
2023/08/22 10:16:49;;;;;;;;;;;;;;;27.32;50.42;98278.41;4932637;28;20032;-77
2023/08/22 10:19:17;;;;;;;;;;;;;;;27.39;51.00;98279.13;4921213;29;19927;-77
2023/08/22 10:21:46;;;;;;;;;;;;;;;27.34;51.60;98281.59;4940977;29;19926;-76
2023/08/22 10:24:19;;;;;;;;;;;;;;;27.38;51.21;98271.97;4936653;28;20410;-76
2023/08/22 10:26:48;;;;;;;;;;;;;;;27.42;50.46;98272.72;4936533;28;19931;-76
2023/08/22 10:29:33;;;;;;;;;;;;;;;27.39;50.33;98272.75;4933248;29;19927;-77
2023/08/22 10:32:18;;;;;;;;;;;;;;;27.49;50.29;98268.28;4927968;28;19934;-78
2023/08/22 10:35:10;;;;;;;;;;;;;;;27.48;51.89;98264.66;4925917;29;20393;-75
2023/08/22 10:37:45;;;;;;;;;;;;;;;27.47;51.56;98267.88;4918563;29;19926;-76
2023/08/22 10:40:20;;;;;;;;;;;;;;;27.47;51.06;98267.88;4934340;29;20343;-76
2023/08/22 10:42:51;;;;;;;;;;;;;;;27.53;51.20;98264.22;4931124;28;19927;-77
2023/08/22 10:45:21;;;;;;;;;;;;;;;27.57;50.54;98267.75;4929018;28;19927;-79
2023/08/22 10:47:50;;;;;;;;;;;;;;;27.57;50.75;98262.19;4934106;29;19933;-76
2023/08/22 10:50:18;;;;;;;;;;;;;;;27.55;52.59;98258.25;4933356;29;19937;-76
2023/08/22 10:52:46;;;;;;;;;;;;;;;27.56;51.49;98260.59;4933884;28;19927;-76
2023/08/22 10:55:14;;;;;;;;;;;;;;;27.58;51.00;98260.19;4933294;28;19962;-78
2023/08/22 10:57:42;;;;;;;;;;;;;;;27.60;50.76;98258.56;4933369;29;19937;-76
2023/08/22 11:00:22;;;;;;;;;;;;;;;27.82;50.32;98258.34;4925882;29;19933;-85
2023/08/22 11:02:51;;;;;;;;;;;;;;;27.91;49.90;98253.84;4926213;29;20029;-84
2023/08/22 11:05:20;;;;;;;;;;;;;;;27.83;50.71;98248.75;4943035;28;19973;-85
2023/08/22 11:07:48;;;;;;;;;;;;;;;27.98;49.79;98257.75;4941138;28;19931;-84
2023/08/22 11:10:18;;;;;;;;;;;;;;;27.97;50.49;98245.78;4941063;29;19934;-85
2023/08/22 11:12:46;;;;;;;;;;;;;;;28.04;49.49;98248.47;4934217;28;19977;-85
2023/08/22 11:15:15;;;;;;;;;;;;;;;28.10;49.74;98257.16;4928502;28;20222;-86
2023/08/22 11:17:43;;;;;;;;;;;;;;;28.05;49.62;98252.84;4946319;29;20314;-85
2023/08/22 11:20:13;;;;;;;;;;;;;;;27.96;48.84;98249.75;4933201;29;19931;-84
2023/08/22 11:22:42;;;;;;;;;;;;;;;27.92;48.91;98244.25;4946246;29;19931;-85
2023/08/22 11:25:11;;;;;;;;;;;;;;;28.03;48.72;98255.28;4929009;28;19939;-85
2023/08/22 11:27:39;;;;;;;;;;;;;;;28.03;48.98;98249.69;4921729;29;19927;-85
2023/08/22 11:30:07;;;;;;;;;;;;;;;27.99;48.37;98253.72;4924530;29;19931;-85
2023/08/22 11:32:36;;;;;;;;;;;;;;;27.96;48.77;98249.75;4922891;28;19962;-84
2023/08/22 11:35:05;;;;;;;;;;;;;;;28.00;48.66;98247.72;4928682;29;19994;-85
2023/08/22 11:37:35;;;;;;;;;;;;;;;28.03;48.63;98244.09;4928137;29;19933;-84
2023/08/22 11:40:04;;;;;;;;;;;;;;;28.13;47.93;98248.75;4928657;29;19938;-85
2023/08/22 11:42:33;;;;;;;;;;;;;;;28.14;48.46;98249.53;4931474;29;19927;-87
2023/08/22 11:45:05;;;;;;;;;;;;;;;28.18;48.67;98250.28;4932024;28;20282;-85
2023/08/22 11:47:37;;;;;;;;;;;;;;;28.30;48.28;98249.69;4926442;29;19930;-84
2023/08/22 11:50:06;;;;;;;;;;;;;;;28.32;48.75;98247.25;4914242;29;19927;-84
2023/08/22 11:52:35;;;;;;;;;;;;;;;28.37;48.16;98248.81;4927776;29;19950;-85
2023/08/22 11:55:04;;;;;;;;;;;;;;;28.30;49.27;98248.91;4917070;29;19977;-84
2023/08/22 11:57:32;;;;;;;;;;;;;;;28.25;48.12;98252.19;4929738;29;19993;-84
2023/08/22 12:00:01;;;;;;;;;;;;;;;28.36;48.19;98247.25;4918110;29;20374;-84
2023/08/22 12:02:38;;;;;;;;;;;;;;;28.35;47.78;98254.84;4930858;29;19931;-84
2023/08/22 12:05:07;;;;;;;;;;;;;;;28.35;48.15;98251.25;4919448;29;19927;-85
2023/08/22 12:07:43;;;;;;;;;;;;;;;28.40;48.07;98242.41;4939023;29;19927;-84
2023/08/22 12:10:13;;;;;;;;;;;;;;;28.45;47.47;98241.94;4922276;29;19935;-76
2023/08/22 12:12:41;;;;;;;;;;;;;;;28.49;47.64;98242.63;4927231;29;19982;-76
2023/08/22 12:18:29;;;;;;;;;;;;;;;28.66;47.33;98244.38;4924206;29;19927;-76
2023/08/22 12:20:57;;;;;;;;;;;;;;;28.63;48.66;98233.25;5310304;23;19938;-86
2023/08/22 12:23:26;;;;;;;;;;;;;;;28.63;47.21;98231.25;4946231;29;19926;-86
2023/08/22 12:25:54;;;;;;;;;;;;;;;28.57;46.83;98238.53;4953075;28;19940;-86
2023/08/22 12:28:24;;;;;;;;;;;;;;;28.56;47.42;98231.38;4949392;28;19997;-86
2023/08/22 12:30:52;;;;;;;;;;;;;;;28.58;47.23;98231.72;4947063;28;20313;-85
2023/08/22 12:33:19;;;;;;;;;;;;;;;28.74;46.77;98224.69;4955295;28;19970;-86
2023/08/22 12:35:47;;;;;;;;;;;;;;;28.72;47.21;98230.72;4969145;28;19930;-86
2023/08/22 12:38:16;;;;;;;;;;;;;;;28.69;46.78;98235.13;4972556;28;19936;-86
2023/08/22 12:40:45;;;;;;;;;;;;;;;28.63;47.32;98230.44;4957760;28;19936;-86
2023/08/22 12:43:12;;;;;;;;;;;;;;;28.66;47.37;98241.59;4965094;28;19934;-86
2023/08/22 12:45:40;;;;;;;;;;;;;;;28.62;47.37;98231.69;4962974;28;19930;-86
2023/08/22 12:48:08;;;;;;;;;;;;;;;28.58;46.55;98233.72;4967493;28;19930;-86
2023/08/22 12:50:36;;;;;;;;;;;;;;;28.60;46.80;98228.50;4950324;28;19946;-86
2023/08/22 12:53:08;;;;;;;;;;;;;;;28.57;47.50;98232.94;4961677;28;20013;-86
2023/08/22 12:55:40;;;;;;;;;;;;;;;28.63;46.61;98230.44;4964869;28;19934;-86
2023/08/22 12:58:10;;;;;;;;;;;;;;;28.54;47.62;98233.00;4972275;28;20463;-86
2023/08/22 13:00:38;;;;;;;;;;;;;;;28.50;46.87;98230.28;4957959;28;19991;-86